sensor_id;sensor_type;location;lat;lon;timestamp;pressure;altitude;pressure_sealevel;temperature;humidity
78894;BME280;68282;42.698;23.350;2023-05-02T00:00:12;95766.38;;;15.02;51.76
78894;BME280;68282;42.698;23.350;2023-05-02T00:02:38;95764.72;;;15.00;52.13
78894;BME280;68282;42.698;23.350;2023-05-02T00:05:04;95770.53;;;15.04;51.94
78894;BME280;68282;42.698;23.350;2023-05-02T00:07:31;95771.94;;;15.07;51.88
78894;BME280;68282;42.698;23.350;2023-05-02T00:09:56;95765.09;;;15.09;51.56
78894;BME280;68282;42.698;23.350;2023-05-02T00:12:21;95766.56;;;15.17;51.31
78894;BME280;68282;42.698;23.350;2023-05-02T00:14:47;95756.75;;;15.21;51.33
78894;BME280;68282;42.698;23.350;2023-05-02T00:17:19;95765.53;;;15.23;51.58
78894;BME280;68282;42.698;23.350;2023-05-02T00:19:45;95766.59;;;15.22;51.21
78894;BME280;68282;42.698;23.350;2023-05-02T00:22:10;95764.75;;;15.28;51.30
78894;BME280;68282;42.698;23.350;2023-05-02T00:24:36;95766.66;;;15.27;51.37
78894;BME280;68282;42.698;23.350;2023-05-02T00:27:01;95771.66;;;15.30;51.11
78894;BME280;68282;42.698;23.350;2023-05-02T00:29:27;95766.16;;;15.30;51.05
78894;BME280;68282;42.698;23.350;2023-05-02T00:31:52;95775.78;;;15.33;50.84
78894;BME280;68282;42.698;23.350;2023-05-02T00:34:17;95782.06;;;15.34;51.31
78894;BME280;68282;42.698;23.350;2023-05-02T00:36:43;95783.50;;;15.36;50.93
78894;BME280;68282;42.698;23.350;2023-05-02T00:39:08;95782.72;;;15.41;50.85
78894;BME280;68282;42.698;23.350;2023-05-02T00:41:34;95784.38;;;15.42;50.81
78894;BME280;68282;42.698;23.350;2023-05-02T00:43:59;95784.00;;;15.33;50.65
78894;BME280;68282;42.698;23.350;2023-05-02T00:46:25;95790.34;;;15.39;50.73
78894;BME280;68282;42.698;23.350;2023-05-02T00:48:50;95798.50;;;15.34;50.59
78894;BME280;68282;42.698;23.350;2023-05-02T00:51:16;95797.38;;;15.29;50.83
78894;BME280;68282;42.698;23.350;2023-05-02T00:53:42;95807.50;;;15.29;50.90
78894;BME280;68282;42.698;23.350;2023-05-02T00:56:08;95803.94;;;15.28;50.90
78894;BME280;68282;42.698;23.350;2023-05-02T00:58:37;95802.88;;;15.29;51.07
78894;BME280;68282;42.698;23.350;2023-05-02T01:04:18;95800.25;;;15.40;50.60
78894;BME280;68282;42.698;23.350;2023-05-02T01:09:25;95799.66;;;15.38;51.23
78894;BME280;68282;42.698;23.350;2023-05-02T01:12:09;95801.25;;;15.34;51.18
78894;BME280;68282;42.698;23.350;2023-05-02T01:14:41;95805.06;;;15.33;51.46
78894;BME280;68282;42.698;23.350;2023-05-02T01:17:11;95804.25;;;15.32;52.03
78894;BME280;68282;42.698;23.350;2023-05-02T01:19:39;95800.13;;;15.29;51.83
78894;BME280;68282;42.698;23.350;2023-05-02T01:22:08;95801.44;;;15.27;51.99
78894;BME280;68282;42.698;23.350;2023-05-02T01:24:41;95805.81;;;15.23;52.17
78894;BME280;68282;42.698;23.350;2023-05-02T01:29:45;95797.28;;;15.19;52.23
78894;BME280;68282;42.698;23.350;2023-05-02T01:32:15;95784.34;;;15.14;52.41
78894;BME280;68282;42.698;23.350;2023-05-02T01:34:42;95788.41;;;15.12;52.52
78894;BME280;68282;42.698;23.350;2023-05-02T01:37:10;95793.06;;;15.11;52.85
78894;BME280;68282;42.698;23.350;2023-05-02T01:39:37;95784.00;;;15.11;52.59
78894;BME280;68282;42.698;23.350;2023-05-02T01:42:04;95793.00;;;15.06;52.64
78894;BME280;68282;42.698;23.350;2023-05-02T01:44:31;95791.56;;;14.98;53.08
78894;BME280;68282;42.698;23.350;2023-05-02T01:46:59;95802.50;;;14.98;53.27
78894;BME280;68282;42.698;23.350;2023-05-02T01:49:28;95796.19;;;14.98;53.29
78894;BME280;68282;42.698;23.350;2023-05-02T01:51:56;95804.72;;;15.02;53.24
78894;BME280;68282;42.698;23.350;2023-05-02T01:54:28;95804.47;;;15.03;53.30
78894;BME280;68282;42.698;23.350;2023-05-02T01:56:55;95796.56;;;15.07;53.13
78894;BME280;68282;42.698;23.350;2023-05-02T01:59:22;95803.13;;;15.06;52.96
78894;BME280;68282;42.698;23.350;2023-05-02T02:01:50;95801.47;;;15.05;52.96
78894;BME280;68282;42.698;23.350;2023-05-02T02:04:18;95788.88;;;15.04;53.25
78894;BME280;68282;42.698;23.350;2023-05-02T02:06:47;95792.38;;;14.99;53.28
78894;BME280;68282;42.698;23.350;2023-05-02T02:09:15;95781.34;;;14.94;53.72
78894;BME280;68282;42.698;23.350;2023-05-02T02:11:48;95789.91;;;14.97;53.62
78894;BME280;68282;42.698;23.350;2023-05-02T02:14:18;95788.75;;;14.93;53.85
78894;BME280;68282;42.698;23.350;2023-05-02T02:16:44;95794.72;;;14.90;54.06
78894;BME280;68282;42.698;23.350;2023-05-02T02:19:12;95794.16;;;14.88;53.68
78894;BME280;68282;42.698;23.350;2023-05-02T02:21:42;95793.13;;;14.94;53.42
78894;BME280;68282;42.698;23.350;2023-05-02T02:24:08;95793.94;;;14.95;53.40
78894;BME280;68282;42.698;23.350;2023-05-02T02:26:35;95792.88;;;14.96;53.45
78894;BME280;68282;42.698;23.350;2023-05-02T02:29:02;95790.91;;;14.91;53.52
78894;BME280;68282;42.698;23.350;2023-05-02T02:31:34;95792.25;;;14.89;53.82
78894;BME280;68282;42.698;23.350;2023-05-02T02:34:00;95801.53;;;14.88;53.75
78894;BME280;68282;42.698;23.350;2023-05-02T02:36:44;95789.50;;;14.89;53.97
78894;BME280;68282;42.698;23.350;2023-05-02T02:44:55;95797.91;;;14.82;53.98
78894;BME280;68282;42.698;23.350;2023-05-02T02:52:54;95802.16;;;14.73;54.53
78894;BME280;68282;42.698;23.350;2023-05-02T02:58:14;95808.41;;;14.68;54.37
78894;BME280;68282;42.698;23.350;2023-05-02T03:00:43;95806.75;;;14.67;54.43
78894;BME280;68282;42.698;23.350;2023-05-02T03:03:10;95815.53;;;14.69;54.32
78894;BME280;68282;42.698;23.350;2023-05-02T03:05:38;95818.16;;;14.64;54.29
78894;BME280;68282;42.698;23.350;2023-05-02T03:08:03;95816.19;;;14.59;54.84
78894;BME280;68282;42.698;23.350;2023-05-02T03:10:29;95831.28;;;14.62;54.26
78894;BME280;68282;42.698;23.350;2023-05-02T03:12:55;95822.75;;;14.58;54.74
78894;BME280;68282;42.698;23.350;2023-05-02T03:17:54;95834.75;;;14.57;55.05
78894;BME280;68282;42.698;23.350;2023-05-02T03:20:20;95832.56;;;14.54;55.25
78894;BME280;68282;42.698;23.350;2023-05-02T03:22:45;95833.94;;;14.57;55.02
78894;BME280;68282;42.698;23.350;2023-05-02T03:25:11;95833.09;;;14.56;54.55
78894;BME280;68282;42.698;23.350;2023-05-02T03:27:36;95839.69;;;14.55;54.98
78894;BME280;68282;42.698;23.350;2023-05-02T03:30:02;95839.91;;;14.53;54.94
78894;BME280;68282;42.698;23.350;2023-05-02T03:32:27;95838.53;;;14.51;55.23
78894;BME280;68282;42.698;23.350;2023-05-02T03:34:52;95836.84;;;14.50;54.81
78894;BME280;68282;42.698;23.350;2023-05-02T03:37:23;95834.94;;;14.50;55.19
78894;BME280;68282;42.698;23.350;2023-05-02T03:39:48;95824.84;;;14.51;54.86
78894;BME280;68282;42.698;23.350;2023-05-02T03:42:13;95836.28;;;14.48;55.21
78894;BME280;68282;42.698;23.350;2023-05-02T03:44:39;95834.94;;;14.50;55.13
78894;BME280;68282;42.698;23.350;2023-05-02T03:47:04;95839.09;;;14.53;54.84
78894;BME280;68282;42.698;23.350;2023-05-02T03:49:29;95841.53;;;14.49;54.88
78894;BME280;68282;42.698;23.350;2023-05-02T03:51:55;95844.91;;;14.57;55.06
78894;BME280;68282;42.698;23.350;2023-05-02T03:54:21;95840.25;;;14.57;54.72
78894;BME280;68282;42.698;23.350;2023-05-02T03:56:46;95841.56;;;14.54;55.02
78894;BME280;68282;42.698;23.350;2023-05-02T03:59:13;95845.66;;;14.52;54.83
78894;BME280;68282;42.698;23.350;2023-05-02T04:01:38;95837.94;;;14.49;54.98
78894;BME280;68282;42.698;23.350;2023-05-02T04:04:04;95842.16;;;14.57;55.07
78894;BME280;68282;42.698;23.350;2023-05-02T04:06:29;95839.75;;;14.60;55.20
78894;BME280;68282;42.698;23.350;2023-05-02T04:08:56;95845.22;;;14.60;55.10
78894;BME280;68282;42.698;23.350;2023-05-02T04:11:22;95837.00;;;14.60;54.57
78894;BME280;68282;42.698;23.350;2023-05-02T04:13:48;95847.19;;;14.65;54.98
78894;BME280;68282;42.698;23.350;2023-05-02T04:16:13;95847.47;;;14.63;54.94
78894;BME280;68282;42.698;23.350;2023-05-02T04:18:39;95845.66;;;14.69;55.06
78894;BME280;68282;42.698;23.350;2023-05-02T04:21:06;95855.84;;;14.74;54.47
78894;BME280;68282;42.698;23.350;2023-05-02T04:23:33;95851.47;;;14.73;54.53
78894;BME280;68282;42.698;23.350;2023-05-02T04:25:58;95854.19;;;14.73;54.10
78894;BME280;68282;42.698;23.350;2023-05-02T04:28:24;95852.53;;;14.72;54.37
78894;BME280;68282;42.698;23.350;2023-05-02T04:30:49;95849.53;;;14.73;54.19
78894;BME280;68282;42.698;23.350;2023-05-02T04:33:16;95847.06;;;14.72;53.95
78894;BME280;68282;42.698;23.350;2023-05-02T04:35:43;95853.63;;;14.71;53.98
78894;BME280;68282;42.698;23.350;2023-05-02T04:38:08;95852.22;;;14.68;54.02
78894;BME280;68282;42.698;23.350;2023-05-02T04:40:34;95858.81;;;14.72;53.93
78894;BME280;68282;42.698;23.350;2023-05-02T04:43:00;95853.88;;;14.69;53.49
78894;BME280;68282;42.698;23.350;2023-05-02T04:45:25;95860.16;;;14.69;53.44
78894;BME280;68282;42.698;23.350;2023-05-02T04:47:51;95861.56;;;14.72;53.33
78894;BME280;68282;42.698;23.350;2023-05-02T04:50:17;95866.38;;;14.65;53.54
78894;BME280;68282;42.698;23.350;2023-05-02T04:52:42;95855.53;;;14.70;53.56
78894;BME280;68282;42.698;23.350;2023-05-02T04:55:08;95853.88;;;14.69;53.33
78894;BME280;68282;42.698;23.350;2023-05-02T04:57:33;95855.00;;;14.73;53.19
78894;BME280;68282;42.698;23.350;2023-05-02T04:59:58;95862.47;;;14.78;52.97
78894;BME280;68282;42.698;23.350;2023-05-02T05:02:24;95855.69;;;14.80;52.98
78894;BME280;68282;42.698;23.350;2023-05-02T05:04:51;95856.31;;;14.88;52.63
78894;BME280;68282;42.698;23.350;2023-05-02T05:07:16;95862.63;;;14.88;52.64
78894;BME280;68282;42.698;23.350;2023-05-02T05:09:42;95862.56;;;14.83;52.27
78894;BME280;68282;42.698;23.350;2023-05-02T05:12:07;95862.06;;;14.86;52.26
78894;BME280;68282;42.698;23.350;2023-05-02T05:14:33;95866.38;;;14.82;52.37
78894;BME280;68282;42.698;23.350;2023-05-02T05:16:58;95868.94;;;14.89;52.28
78894;BME280;68282;42.698;23.350;2023-05-02T05:19:24;95859.69;;;14.95;51.67
78894;BME280;68282;42.698;23.350;2023-05-02T05:21:51;95869.34;;;14.97;51.86
78894;BME280;68282;42.698;23.350;2023-05-02T05:24:20;95862.00;;;15.03;51.36
78894;BME280;68282;42.698;23.350;2023-05-02T05:26:45;95867.72;;;15.02;51.77
78894;BME280;68282;42.698;23.350;2023-05-02T05:29:11;95874.94;;;15.08;51.20
78894;BME280;68282;42.698;23.350;2023-05-02T05:31:37;95872.13;;;15.03;50.80
78894;BME280;68282;42.698;23.350;2023-05-02T05:34:02;95873.28;;;15.07;51.57
78894;BME280;68282;42.698;23.350;2023-05-02T05:36:28;95867.31;;;15.10;51.51
78894;BME280;68282;42.698;23.350;2023-05-02T05:38:54;95871.94;;;15.09;50.50
78894;BME280;68282;42.698;23.350;2023-05-02T05:41:21;95871.50;;;15.18;50.22
78894;BME280;68282;42.698;23.350;2023-05-02T05:43:47;95874.31;;;15.23;50.39
78894;BME280;68282;42.698;23.350;2023-05-02T05:46:12;95871.88;;;15.26;50.12
78894;BME280;68282;42.698;23.350;2023-05-02T05:48:37;95876.34;;;15.33;50.39
78894;BME280;68282;42.698;23.350;2023-05-02T05:51:04;95881.00;;;15.32;49.68
78894;BME280;68282;42.698;23.350;2023-05-02T05:53:30;95876.41;;;15.38;49.41
78894;BME280;68282;42.698;23.350;2023-05-02T05:55:55;95876.69;;;15.36;49.40
78894;BME280;68282;42.698;23.350;2023-05-02T05:58:21;95879.06;;;15.33;49.21
78894;BME280;68282;42.698;23.350;2023-05-02T06:00:47;95873.03;;;15.30;49.13
78894;BME280;68282;42.698;23.350;2023-05-02T06:03:13;95885.44;;;15.38;48.39
78894;BME280;68282;42.698;23.350;2023-05-02T06:05:39;95878.25;;;15.32;49.41
78894;BME280;68282;42.698;23.350;2023-05-02T06:08:04;95893.13;;;15.36;48.99
78894;BME280;68282;42.698;23.350;2023-05-02T06:10:30;95889.81;;;15.34;47.96
78894;BME280;68282;42.698;23.350;2023-05-02T06:12:56;95878.56;;;15.36;48.38
78894;BME280;68282;42.698;23.350;2023-05-02T06:15:22;95887.63;;;15.36;48.45
78894;BME280;68282;42.698;23.350;2023-05-02T06:17:50;95888.00;;;15.45;46.98
78894;BME280;68282;42.698;23.350;2023-05-02T06:20:15;95881.44;;;15.46;47.25
78894;BME280;68282;42.698;23.350;2023-05-02T06:22:41;95869.38;;;15.47;46.73
78894;BME280;68282;42.698;23.350;2023-05-02T06:25:07;95876.59;;;15.53;47.57
78894;BME280;68282;42.698;23.350;2023-05-02T06:27:33;95876.84;;;15.52;47.13
78894;BME280;68282;42.698;23.350;2023-05-02T06:29:58;95871.66;;;15.55;47.13
78894;BME280;68282;42.698;23.350;2023-05-02T06:32:24;95867.91;;;15.61;46.60
78894;BME280;68282;42.698;23.350;2023-05-02T06:34:53;95878.47;;;15.75;45.09
78894;BME280;68282;42.698;23.350;2023-05-02T06:37:19;95875.22;;;15.78;45.69
78894;BME280;68282;42.698;23.350;2023-05-02T06:39:44;95875.22;;;15.78;45.34
78894;BME280;68282;42.698;23.350;2023-05-02T06:42:10;95863.25;;;15.84;45.80
78894;BME280;68282;42.698;23.350;2023-05-02T06:44:35;95870.38;;;15.85;44.72
78894;BME280;68282;42.698;23.350;2023-05-02T06:47:03;95860.59;;;15.95;45.90
78894;BME280;68282;42.698;23.350;2023-05-02T06:49:29;95858.44;;;15.97;45.33
78894;BME280;68282;42.698;23.350;2023-05-02T06:51:54;95866.69;;;16.02;44.45
78894;BME280;68282;42.698;23.350;2023-05-02T06:54:20;95856.34;;;16.09;45.20
78894;BME280;68282;42.698;23.350;2023-05-02T06:56:46;95864.88;;;16.13;44.31
78894;BME280;68282;42.698;23.350;2023-05-02T06:59:12;95854.25;;;16.21;44.25
78894;BME280;68282;42.698;23.350;2023-05-02T07:01:37;95857.63;;;16.29;43.87
78894;BME280;68282;42.698;23.350;2023-05-02T07:04:02;95849.63;;;16.27;43.15
78894;BME280;68282;42.698;23.350;2023-05-02T07:06:30;95859.50;;;16.23;42.71
78894;BME280;68282;42.698;23.350;2023-05-02T07:08:56;95851.28;;;16.28;43.13
78894;BME280;68282;42.698;23.350;2023-05-02T07:11:21;95853.56;;;16.36;43.62
78894;BME280;68282;42.698;23.350;2023-05-02T07:13:48;95844.53;;;16.41;43.45
78894;BME280;68282;42.698;23.350;2023-05-02T07:16:14;95851.44;;;16.49;43.27
78894;BME280;68282;42.698;23.350;2023-05-02T07:18:39;95866.88;;;16.55;41.34
78894;BME280;68282;42.698;23.350;2023-05-02T07:21:06;95852.88;;;16.57;40.91
78894;BME280;68282;42.698;23.350;2023-05-02T07:23:32;95850.13;;;16.57;41.45
78894;BME280;68282;42.698;23.350;2023-05-02T07:25:58;95846.00;;;16.59;41.14
78894;BME280;68282;42.698;23.350;2023-05-02T07:28:23;95857.31;;;16.63;41.14
78894;BME280;68282;42.698;23.350;2023-05-02T07:30:49;95853.22;;;16.70;40.37
78894;BME280;68282;42.698;23.350;2023-05-02T07:33:17;95852.41;;;16.70;41.28
78894;BME280;68282;42.698;23.350;2023-05-02T07:35:43;95853.28;;;16.76;41.50
78894;BME280;68282;42.698;23.350;2023-05-02T07:38:08;95858.25;;;16.84;41.29
78894;BME280;68282;42.698;23.350;2023-05-02T07:40:34;95848.69;;;16.92;40.25
78894;BME280;68282;42.698;23.350;2023-05-02T07:43:02;95846.03;;;16.97;39.61
78894;BME280;68282;42.698;23.350;2023-05-02T07:45:28;95866.94;;;17.03;40.15
78894;BME280;68282;42.698;23.350;2023-05-02T07:47:53;95858.72;;;17.08;40.37
78894;BME280;68282;42.698;23.350;2023-05-02T07:50:19;95855.44;;;17.11;39.76
78894;BME280;68282;42.698;23.350;2023-05-02T07:52:44;95857.13;;;17.18;40.16
78894;BME280;68282;42.698;23.350;2023-05-02T07:55:10;95855.50;;;17.27;39.82
78894;BME280;68282;42.698;23.350;2023-05-02T07:57:36;95859.09;;;17.33;40.62
78894;BME280;68282;42.698;23.350;2023-05-02T08:00:02;95850.88;;;17.38;39.10
78894;BME280;68282;42.698;23.350;2023-05-02T08:02:27;95859.44;;;17.41;39.12
78894;BME280;68282;42.698;23.350;2023-05-02T08:04:53;95849.53;;;17.40;39.56
78894;BME280;68282;42.698;23.350;2023-05-02T08:07:19;95859.16;;;17.48;39.13
78894;BME280;68282;42.698;23.350;2023-05-02T08:09:44;95847.34;;;17.48;39.55
78894;BME280;68282;42.698;23.350;2023-05-02T08:12:10;95856.72;;;17.57;39.29
78894;BME280;68282;42.698;23.350;2023-05-02T08:14:35;95850.69;;;17.60;39.49
78894;BME280;68282;42.698;23.350;2023-05-02T08:17:01;95858.41;;;17.63;39.89
78894;BME280;68282;42.698;23.350;2023-05-02T08:19:26;95857.59;;;17.68;39.86
78894;BME280;68282;42.698;23.350;2023-05-02T08:21:55;95851.25;;;17.72;39.66
78894;BME280;68282;42.698;23.350;2023-05-02T08:24:20;95850.16;;;17.78;38.76
78894;BME280;68282;42.698;23.350;2023-05-02T08:26:46;95854.59;;;17.85;38.83
78894;BME280;68282;42.698;23.350;2023-05-02T08:29:13;95851.03;;;17.89;38.43
78894;BME280;68282;42.698;23.350;2023-05-02T08:31:40;95850.75;;;17.91;38.04
78894;BME280;68282;42.698;23.350;2023-05-02T08:34:06;95855.75;;;17.99;38.38
78894;BME280;68282;42.698;23.350;2023-05-02T08:36:31;95842.25;;;18.03;38.41
78894;BME280;68282;42.698;23.350;2023-05-02T08:38:57;95850.00;;;18.11;37.65
78894;BME280;68282;42.698;23.350;2023-05-02T08:41:22;95841.47;;;18.18;37.57
78894;BME280;68282;42.698;23.350;2023-05-02T08:43:48;95853.00;;;18.20;37.12
78894;BME280;68282;42.698;23.350;2023-05-02T08:46:15;95848.88;;;18.28;37.68
78894;BME280;68282;42.698;23.350;2023-05-02T08:48:43;95846.16;;;18.33;37.30
78894;BME280;68282;42.698;23.350;2023-05-02T08:51:11;95848.06;;;18.43;37.50
78894;BME280;68282;42.698;23.350;2023-05-02T08:53:37;95839.78;;;18.43;36.77
78894;BME280;68282;42.698;23.350;2023-05-02T08:56:03;95839.25;;;18.41;37.32
78894;BME280;68282;42.698;23.350;2023-05-02T08:58:29;95841.19;;;18.40;36.43
78894;BME280;68282;42.698;23.350;2023-05-02T09:01:01;95836.50;;;18.51;36.61
78894;BME280;68282;42.698;23.350;2023-05-02T09:03:31;95829.59;;;18.64;35.75
78894;BME280;68282;42.698;23.350;2023-05-02T09:06:15;95831.50;;;18.63;36.27
78894;BME280;68282;42.698;23.350;2023-05-02T09:08:43;95841.16;;;18.66;35.20
78894;BME280;68282;42.698;23.350;2023-05-02T09:11:10;95825.16;;;18.73;36.50
78894;BME280;68282;42.698;23.350;2023-05-02T09:13:36;95822.94;;;18.85;34.87
78894;BME280;68282;42.698;23.350;2023-05-02T09:16:07;95827.34;;;18.81;35.44
78894;BME280;68282;42.698;23.350;2023-05-02T09:18:36;95825.13;;;18.94;35.91
78894;BME280;68282;42.698;23.350;2023-05-02T09:21:09;95828.72;;;19.05;34.63
78894;BME280;68282;42.698;23.350;2023-05-02T09:23:37;95824.25;;;19.09;35.61
78894;BME280;68282;42.698;23.350;2023-05-02T09:28:42;95816.25;;;19.18;34.49
78894;BME280;68282;42.698;23.350;2023-05-02T09:31:10;95816.50;;;19.26;35.16
78894;BME280;68282;42.698;23.350;2023-05-02T09:33:37;95810.69;;;19.33;34.50
78894;BME280;68282;42.698;23.350;2023-05-02T09:36:03;95810.94;;;19.37;34.19
78894;BME280;68282;42.698;23.350;2023-05-02T09:38:29;95810.91;;;19.42;34.24
78894;BME280;68282;42.698;23.350;2023-05-02T09:40:55;95821.31;;;19.55;32.43
78894;BME280;68282;42.698;23.350;2023-05-02T09:43:21;95799.50;;;19.59;33.85
78894;BME280;68282;42.698;23.350;2023-05-02T09:46:03;95805.25;;;19.68;33.30
78894;BME280;68282;42.698;23.350;2023-05-02T09:48:30;95814.81;;;19.81;33.11
78894;BME280;68282;42.698;23.350;2023-05-02T09:50:56;95797.41;;;19.85;32.40
78894;BME280;68282;42.698;23.350;2023-05-02T09:53:24;95798.22;;;19.91;32.66
78894;BME280;68282;42.698;23.350;2023-05-02T09:56:04;95798.38;;;20.10;31.05
78894;BME280;68282;42.698;23.350;2023-05-02T09:58:30;95805.50;;;20.16;31.86
78894;BME280;68282;42.698;23.350;2023-05-02T10:00:56;95787.47;;;20.24;31.12
78894;BME280;68282;42.698;23.350;2023-05-02T10:03:24;95788.53;;;20.33;31.53
78894;BME280;68282;42.698;23.350;2023-05-02T10:05:50;95782.16;;;20.33;32.16
78894;BME280;68282;42.698;23.350;2023-05-02T10:08:18;95786.78;;;20.43;31.62
78894;BME280;68282;42.698;23.350;2023-05-02T10:10:57;95782.56;;;20.50;31.00
78894;BME280;68282;42.698;23.350;2023-05-02T10:13:24;95778.06;;;20.60;31.18
78894;BME280;68282;42.698;23.350;2023-05-02T10:15:59;95778.22;;;20.68;31.20
78894;BME280;68282;42.698;23.350;2023-05-02T10:21:25;95768.03;;;20.64;30.66
78894;BME280;68282;42.698;23.350;2023-05-02T10:23:54;95770.44;;;20.76;31.63
78894;BME280;68282;42.698;23.350;2023-05-02T10:26:20;95755.22;;;20.78;30.70
78894;BME280;68282;42.698;23.350;2023-05-02T10:28:47;95765.50;;;20.97;30.07
78894;BME280;68282;42.698;23.350;2023-05-02T10:31:13;95762.38;;;21.04;29.02
78894;BME280;68282;42.698;23.350;2023-05-02T10:33:40;95752.09;;;21.09;29.36
78894;BME280;68282;42.698;23.350;2023-05-02T10:36:08;95745.88;;;21.17;29.26
78894;BME280;68282;42.698;23.350;2023-05-02T10:38:39;95757.72;;;21.23;29.03
78894;BME280;68282;42.698;23.350;2023-05-02T10:41:15;95753.59;;;21.21;30.39
78894;BME280;68282;42.698;23.350;2023-05-02T10:43:46;95751.75;;;21.35;29.70
78894;BME280;68282;42.698;23.350;2023-05-02T10:46:34;95745.13;;;21.36;30.22
78894;BME280;68282;42.698;23.350;2023-05-02T10:51:29;95740.88;;;21.44;30.45
78894;BME280;68282;42.698;23.350;2023-05-02T10:59:39;95739.75;;;21.64;28.84
78894;BME280;68282;42.698;23.350;2023-05-02T11:05:02;95727.41;;;21.75;28.88
78894;BME280;68282;42.698;23.350;2023-05-02T11:07:31;95734.00;;;21.80;28.81
78894;BME280;68282;42.698;23.350;2023-05-02T11:12:54;95728.47;;;21.80;29.84
78894;BME280;68282;42.698;23.350;2023-05-02T11:17:58;95726.13;;;21.68;29.66
78894;BME280;68282;42.698;23.350;2023-05-02T11:20:25;95718.78;;;21.58;28.19
78894;BME280;68282;42.698;23.350;2023-05-02T11:22:52;95725.22;;;21.53;29.32
78894;BME280;68282;42.698;23.350;2023-05-02T11:25:31;95724.69;;;21.51;29.91
78894;BME280;68282;42.698;23.350;2023-05-02T11:27:57;95715.50;;;21.56;30.28
78894;BME280;68282;42.698;23.350;2023-05-02T11:30:43;95711.06;;;21.60;28.40
78894;BME280;68282;42.698;23.350;2023-05-02T11:35:35;95714.16;;;21.72;30.34
78894;BME280;68282;42.698;23.350;2023-05-02T11:38:09;95709.38;;;21.78;30.22
78894;BME280;68282;42.698;23.350;2023-05-02T11:40:35;95706.75;;;21.87;29.81
78894;BME280;68282;42.698;23.350;2023-05-02T11:43:12;95704.53;;;22.03;30.20
78894;BME280;68282;42.698;23.350;2023-05-02T11:45:37;95695.31;;;22.07;29.51
78894;BME280;68282;42.698;23.350;2023-05-02T11:48:11;95698.63;;;22.23;27.59
78894;BME280;68282;42.698;23.350;2023-05-02T11:50:50;95692.09;;;22.33;28.31
78894;BME280;68282;42.698;23.350;2023-05-02T11:53:21;95695.53;;;22.44;29.67
78894;BME280;68282;42.698;23.350;2023-05-02T11:55:49;95696.97;;;22.55;28.79
78894;BME280;68282;42.698;23.350;2023-05-02T11:58:16;95694.53;;;22.68;28.76
78894;BME280;68282;42.698;23.350;2023-05-02T12:00:43;95688.38;;;22.71;29.25
78894;BME280;68282;42.698;23.350;2023-05-02T12:03:38;95674.28;;;22.81;28.04
78894;BME280;68282;42.698;23.350;2023-05-02T12:08:37;95669.47;;;22.87;28.97
78894;BME280;68282;42.698;23.350;2023-05-02T12:11:02;95672.66;;;22.80;28.76
78894;BME280;68282;42.698;23.350;2023-05-02T12:13:28;95672.03;;;22.83;28.37
78894;BME280;68282;42.698;23.350;2023-05-02T12:15:55;95675.13;;;22.82;28.94
78894;BME280;68282;42.698;23.350;2023-05-02T12:18:22;95674.69;;;22.89;27.67
78894;BME280;68282;42.698;23.350;2023-05-02T12:20:50;95672.97;;;22.93;27.96
78894;BME280;68282;42.698;23.350;2023-05-02T12:23:17;95671.00;;;22.93;27.60
78894;BME280;68282;42.698;23.350;2023-05-02T12:25:43;95667.94;;;22.95;28.60
78894;BME280;68282;42.698;23.350;2023-05-02T12:28:09;95656.63;;;22.91;27.65
78894;BME280;68282;42.698;23.350;2023-05-02T12:30:36;95651.78;;;22.97;26.73
78894;BME280;68282;42.698;23.350;2023-05-02T12:33:05;95650.16;;;22.96;25.48
78894;BME280;68282;42.698;23.350;2023-05-02T12:35:32;95651.91;;;22.92;26.12
78894;BME280;68282;42.698;23.350;2023-05-02T12:38:23;95645.22;;;22.93;26.15
78894;BME280;68282;42.698;23.350;2023-05-02T12:40:53;95631.34;;;22.93;26.59
78894;BME280;68282;42.698;23.350;2023-05-02T12:43:21;95636.56;;;22.94;26.05
78894;BME280;68282;42.698;23.350;2023-05-02T12:45:47;95629.38;;;22.93;26.19
78894;BME280;68282;42.698;23.350;2023-05-02T12:48:24;95631.16;;;22.89;25.45
78894;BME280;68282;42.698;23.350;2023-05-02T12:50:51;95633.41;;;22.87;27.01
78894;BME280;68282;42.698;23.350;2023-05-02T12:53:40;95634.72;;;22.90;27.17
78894;BME280;68282;42.698;23.350;2023-05-02T12:56:06;95634.53;;;22.86;24.98
78894;BME280;68282;42.698;23.350;2023-05-02T12:58:45;95627.78;;;22.92;26.35
78894;BME280;68282;42.698;23.350;2023-05-02T13:01:12;95616.16;;;22.90;25.42
78894;BME280;68282;42.698;23.350;2023-05-02T13:03:42;95621.06;;;22.93;26.19
78894;BME280;68282;42.698;23.350;2023-05-02T13:06:08;95626.41;;;22.90;26.46
78894;BME280;68282;42.698;23.350;2023-05-02T13:08:34;95621.91;;;22.94;25.78
78894;BME280;68282;42.698;23.350;2023-05-02T13:11:01;95621.06;;;22.93;25.29
78894;BME280;68282;42.698;23.350;2023-05-02T13:13:27;95625.81;;;22.93;25.26
78894;BME280;68282;42.698;23.350;2023-05-02T13:15:53;95618.75;;;22.87;25.71
78894;BME280;68282;42.698;23.350;2023-05-02T13:18:18;95626.84;;;22.83;25.84
78894;BME280;68282;42.698;23.350;2023-05-02T13:20:43;95633.22;;;22.83;25.54
78894;BME280;68282;42.698;23.350;2023-05-02T13:23:09;95625.22;;;22.82;24.88
78894;BME280;68282;42.698;23.350;2023-05-02T13:25:34;95628.47;;;22.84;25.43
78894;BME280;68282;42.698;23.350;2023-05-02T13:28:03;95628.25;;;22.94;26.05
78894;BME280;68282;42.698;23.350;2023-05-02T13:30:28;95634.84;;;22.98;26.07
78894;BME280;68282;42.698;23.350;2023-05-02T13:32:54;95628.88;;;23.05;25.71
78894;BME280;68282;42.698;23.350;2023-05-02T13:35:22;95627.00;;;23.14;24.75
78894;BME280;68282;42.698;23.350;2023-05-02T13:37:48;95624.22;;;23.14;24.82
78894;BME280;68282;42.698;23.350;2023-05-02T13:40:15;95618.06;;;23.17;25.66
78894;BME280;68282;42.698;23.350;2023-05-02T13:42:40;95614.44;;;23.17;24.82